createdAt,value
2022-12-01T00:02:24.983Z,102479.22
2022-12-01T00:04:51.647Z,102484.53
2022-12-01T00:07:18.236Z,102479.22
2022-12-01T00:10:03.566Z,102488.03
2022-12-01T00:12:31.301Z,102483.72
2022-12-01T00:15:00.902Z,102486.34
2022-12-01T00:17:30.596Z,102482.00
2022-12-01T00:19:57.176Z,102480.34
2022-12-01T00:22:23.772Z,102477.69
2022-12-01T00:24:50.382Z,102477.81
2022-12-01T00:27:16.979Z,102478.78
2022-12-01T00:29:43.620Z,102486.75
2022-12-01T00:32:10.217Z,102485.91
2022-12-01T00:34:38.056Z,102482.41
2022-12-01T00:37:05.146Z,102482.69
2022-12-01T00:39:31.915Z,102486.16
2022-12-01T00:41:58.513Z,102480.03
2022-12-01T00:44:25.178Z,102477.50
2022-12-01T00:46:51.762Z,102479.34
2022-12-01T00:49:18.346Z,102483.66
2022-12-01T00:51:44.968Z,102492.69
2022-12-01T00:54:11.577Z,102486.41
2022-12-01T00:56:38.174Z,102483.09
2022-12-01T00:59:04.782Z,102500.75
2022-12-01T01:01:31.445Z,102501.63
2022-12-01T01:03:58.404Z,102500.63
2022-12-01T01:06:24.998Z,102500.63
2022-12-01T01:08:51.595Z,102493.38
2022-12-01T01:11:18.194Z,102498.69
2022-12-01T01:13:44.781Z,102492.44
2022-12-01T01:16:18.290Z,102497.75
2022-12-01T01:18:45.147Z,102499.41
2022-12-01T01:21:14.923Z,102500.22
2022-12-01T01:23:42.055Z,102504.69
2022-12-01T01:26:11.924Z,102504.69
2022-12-01T01:28:41.598Z,102494.25
2022-12-01T01:31:09.736Z,102498.56
2022-12-01T01:33:36.741Z,102497.75
2022-12-01T01:36:04.381Z,102496.88
2022-12-01T01:38:31.669Z,102488.09
2022-12-01T01:40:58.291Z,102493.53
2022-12-01T01:44:02.928Z,102493.66
2022-12-01T01:46:34.262Z,102493.66
2022-12-01T01:49:03.613Z,102494.63
2022-12-01T01:51:40.552Z,102492.13
2022-12-01T01:54:19.283Z,102494.78
2022-12-01T01:56:46.539Z,102493.94
2022-12-01T01:59:16.401Z,102497.56
2022-12-01T02:01:43.052Z,102495.72
2022-12-01T02:04:09.724Z,102494.19
2022-12-01T02:06:36.339Z,102495.16
2022-12-01T02:09:02.937Z,102498.53
2022-12-01T02:11:51.403Z,102498.66
2022-12-01T02:14:34.090Z,102502.13
2022-12-01T02:17:20.915Z,102492.50
2022-12-01T02:20:28.974Z,102492.25
2022-12-01T02:23:33.214Z,102488.75
2022-12-01T02:26:27.754Z,102487.78
2022-12-01T02:29:11.157Z,102493.81
2022-12-01T02:31:54.576Z,102487.66
2022-12-01T02:34:28.710Z,102490.19
2022-12-01T02:37:00.862Z,102493.66
2022-12-01T02:39:38.971Z,102480.56
2022-12-01T02:42:39.916Z,102486.69
2022-12-01T02:45:10.974Z,102481.38
2022-12-01T02:47:38.655Z,102482.22
2022-12-01T02:50:06.302Z,102484.03
2022-12-01T02:52:33.443Z,102480.56
2022-12-01T02:55:00.023Z,102487.66
2022-12-01T02:57:26.610Z,102478.91
2022-12-01T02:59:55.348Z,102484.31
2022-12-01T03:02:42.450Z,102490.44
2022-12-01T03:05:22.655Z,102488.88
2022-12-01T03:08:25.757Z,102486.25
2022-12-01T03:10:57.170Z,102487.94
2022-12-01T03:13:38.074Z,102494.19
2022-12-01T03:16:26.654Z,102486.38
2022-12-01T03:19:00.144Z,102485.41
2022-12-01T03:21:33.814Z,102486.53
2022-12-01T03:24:05.357Z,102487.34
2022-12-01T03:26:33.306Z,102484.81
2022-12-01T03:29:06.684Z,102485.78
2022-12-01T03:31:37.968Z,102484.13
2022-12-01T03:34:18.057Z,102483.16
2022-12-01T03:36:50.938Z,102475.09
2022-12-01T03:39:21.722Z,102478.41
2022-12-01T03:41:55.735Z,102480.25
2022-12-01T03:44:27.503Z,102479.28
2022-12-01T03:46:57.346Z,102477.47
2022-12-01T03:49:25.653Z,102486.25
2022-12-01T03:52:18.709Z,102475.66
2022-12-01T03:54:54.045Z,102476.38
2022-12-01T03:57:29.136Z,102484.31
2022-12-01T03:59:55.772Z,102488.63
2022-12-01T04:02:25.535Z,102477.34
2022-12-01T04:04:52.146Z,102485.28
2022-12-01T04:07:19.675Z,102490.59
2022-12-01T04:09:46.518Z,102480.13
2022-12-01T04:12:29.532Z,102480.94
2022-12-01T04:14:57.495Z,102487.22
2022-12-01T04:17:24.989Z,102485.53
2022-12-01T04:19:51.748Z,102483.88
2022-12-01T04:22:18.854Z,102484.69
2022-12-01T04:24:45.790Z,102491.81
2022-12-01T04:27:12.859Z,102484.69
2022-12-01T04:29:39.432Z,102482.16
2022-12-01T04:32:06.189Z,102487.47
2022-12-01T04:34:32.950Z,102485.09
2022-12-01T04:36:59.540Z,102486.78
2022-12-01T04:39:26.183Z,102492.91
2022-12-01T04:41:52.796Z,102493.84
2022-12-01T04:44:19.390Z,102490.41
2022-12-01T04:46:46.021Z,102489.41
2022-12-01T04:49:12.656Z,102500.84
2022-12-01T04:51:39.305Z,102500.84
2022-12-01T04:54:06.392Z,102499.03
2022-12-01T04:56:33.669Z,102510.34
2022-12-01T04:59:00.868Z,102508.63
2022-12-01T05:01:27.989Z,102509.50
2022-12-01T05:03:54.692Z,102511.28
2022-12-01T05:06:23.676Z,102518.28
2022-12-01T05:08:51.293Z,102510.34
2022-12-01T05:11:18.582Z,102513.09
2022-12-01T05:13:47.168Z,102505.16
2022-12-01T05:16:21.976Z,102512.13
2022-12-01T05:18:50.483Z,102502.53
2022-12-01T05:21:17.855Z,102511.28
2022-12-01T05:23:47.428Z,102512.25
2022-12-01T05:26:14.017Z,102512.25
2022-12-01T05:28:41.094Z,102506.16
2022-12-01T05:31:07.840Z,102515.88
2022-12-01T05:33:34.605Z,102510.59
2022-12-01T05:36:01.232Z,102516.84
2022-12-01T05:38:27.770Z,102516.84
2022-12-01T05:40:55.831Z,102516.97
2022-12-01T05:43:28.752Z,102516.00
2022-12-01T05:45:56.979Z,102512.66
2022-12-01T05:48:24.019Z,102515.16
2022-12-01T05:50:50.640Z,102516.97
2022-12-01T05:53:17.882Z,102517.09
2022-12-01T05:55:44.793Z,102517.09
2022-12-01T05:58:13.245Z,102514.34
2022-12-01T06:00:45.592Z,102511.69
2022-12-01T06:03:12.880Z,102510.72
2022-12-01T06:05:39.600Z,102512.38
2022-12-01T06:08:06.282Z,102515.88
2022-12-01T06:10:33.037Z,102511.44
2022-12-01T06:12:59.741Z,102513.22
2022-12-01T06:15:26.464Z,102510.59
2022-12-01T06:17:53.250Z,102503.63
2022-12-01T06:20:19.855Z,102503.63
2022-12-01T06:22:46.599Z,102514.09
2022-12-01T06:25:13.162Z,102519.50
2022-12-01T06:27:39.749Z,102518.66
2022-12-01T06:30:07.054Z,102524.78
2022-12-01T06:32:33.744Z,102521.41
2022-12-01T06:35:00.305Z,102524.06
2022-12-01T06:37:27.722Z,102531.19
2022-12-01T06:39:54.830Z,102540.91
2022-12-01T06:42:21.499Z,102532.13
2022-12-01T06:44:48.075Z,102533.97
2022-12-01T06:47:15.886Z,102533.84
2022-12-01T06:49:42.566Z,102540.91
2022-12-01T06:52:10.552Z,102537.53
2022-12-01T06:54:37.667Z,102539.34
2022-12-01T06:57:04.807Z,102538.63
2022-12-01T06:59:31.689Z,102542.00
2022-12-01T07:01:58.873Z,102554.28
2022-12-01T07:04:25.591Z,102553.31
2022-12-01T07:06:52.232Z,102548.97
2022-12-01T07:09:18.953Z,102549.94
2022-12-01T07:11:45.542Z,102557.78
2022-12-01T07:14:26.653Z,102560.28
2022-12-01T07:16:53.572Z,102561.25
2022-12-01T07:19:20.387Z,102562.94
2022-12-01T07:21:47.051Z,102558.47
2022-12-01T07:24:14.121Z,102566.41
2022-12-01T07:26:41.482Z,102563.75
2022-12-01T07:29:09.279Z,102572.56
2022-12-01T07:31:36.922Z,102569.91
2022-12-01T07:34:03.890Z,102569.06
2022-12-01T07:36:30.513Z,102569.06
2022-12-01T07:38:57.282Z,102569.19
2022-12-01T07:41:24.455Z,102570.03
2022-12-01T07:43:51.129Z,102575.31
2022-12-01T07:46:24.040Z,102568.34
2022-12-01T07:48:51.955Z,102565.72
2022-12-01T07:51:18.965Z,102568.34
2022-12-01T07:53:46.954Z,102566.66
2022-12-01T07:56:13.650Z,102558.84
2022-12-01T07:58:40.412Z,102568.34
2022-12-01T08:01:20.829Z,102560.50
2022-12-01T08:03:56.641Z,102564.00
2022-12-01T08:06:23.950Z,102568.44
2022-12-01T08:08:50.704Z,102564.13
2022-12-01T08:11:22.780Z,102563.28
2022-12-01T08:13:50.386Z,102564.25
2022-12-01T08:16:19.207Z,102568.44
2022-12-01T08:18:46.047Z,102568.44
2022-12-01T08:21:14.610Z,102573.88
2022-12-01T08:23:42.217Z,102567.72
2022-12-01T08:26:16.303Z,102570.25
2022-12-01T08:28:43.565Z,102565.81
2022-12-01T08:31:12.961Z,102563.16
2022-12-01T08:33:39.872Z,102563.16
2022-12-01T08:36:06.923Z,102561.25
2022-12-01T08:38:33.905Z,102569.19
2022-12-01T08:41:02.138Z,102571.94
2022-12-01T08:43:56.003Z,102577.97
2022-12-01T08:46:15.558Z,102577.97
2022-12-01T08:48:42.200Z,102581.59
2022-12-01T08:51:11.191Z,102585.91
2022-12-01T08:53:45.195Z,102583.38
2022-12-01T08:56:18.445Z,102584.31
2022-12-01T08:58:45.165Z,102585.31
2022-12-01T09:01:14.035Z,102590.59
2022-12-01T09:03:41.120Z,102585.31
2022-12-01T09:06:16.669Z,102589.88
2022-12-01T09:08:43.905Z,102594.19
2022-12-01T09:11:14.330Z,102593.34
2022-12-01T09:13:41.803Z,102594.34
2022-12-01T09:16:11.903Z,102601.28
2022-12-01T09:18:38.965Z,102592.63
2022-12-01T09:21:16.569Z,102591.81
2022-12-01T09:23:43.322Z,102590.84
2022-12-01T09:26:13.544Z,102595.44
2022-12-01T09:28:40.635Z,102595.28
2022-12-01T09:31:09.086Z,102598.66
2022-12-01T09:33:36.039Z,102594.44
2022-12-01T09:36:03.725Z,102592.63
2022-12-01T09:38:31.087Z,102589.03
2022-12-01T09:40:59.966Z,102589.75
2022-12-01T09:43:30.406Z,102587.94
2022-12-01T09:46:02.467Z,102588.75
2022-12-01T09:48:42.561Z,102578.19
2022-12-01T09:51:13.851Z,102587.69
2022-12-01T09:53:41.183Z,102581.59
2022-12-01T09:56:29.462Z,102571.94
2022-12-01T09:59:02.035Z,102577.00
2022-12-01T10:01:39.454Z,102567.38
2022-12-01T10:04:18.044Z,102568.34
2022-12-01T10:07:07.047Z,102564.00
2022-12-01T10:09:41.577Z,102567.59
2022-12-01T10:12:14.830Z,102569.41
2022-12-01T10:14:41.562Z,102561.47
2022-12-01T10:17:19.897Z,102558.97
2022-12-01T10:20:08.557Z,102562.59
2022-12-01T10:22:54.408Z,102562.59
2022-12-01T10:25:25.289Z,102555.59
2022-12-01T10:27:51.872Z,102552.94
2022-12-01T10:30:20.931Z,102559.94
2022-12-01T10:32:54.782Z,102555.88
2022-12-01T10:35:23.903Z,102553.34
2022-12-01T10:37:58.942Z,102551.50
2022-12-01T10:40:27.068Z,102547.19
2022-12-01T10:42:54.493Z,102545.28
2022-12-01T10:45:29.562Z,102541.66
2022-12-01T10:48:16.951Z,102535.53
2022-12-01T10:50:51.883Z,102534.69
2022-12-01T10:53:25.301Z,102534.56
2022-12-01T10:56:00.833Z,102535.28
2022-12-01T10:58:27.584Z,102542.22
2022-12-01T11:01:00.742Z,102540.44
2022-12-01T11:03:31.117Z,102535.97
2022-12-01T11:05:59.899Z,102535.16
2022-12-01T11:08:41.944Z,102529.00
2022-12-01T11:11:28.282Z,102530.66
2022-12-01T11:13:56.098Z,102527.34
2022-12-01T11:16:44.242Z,102529.97
2022-12-01T11:19:27.152Z,102525.66
2022-12-01T11:21:57.481Z,102530.09
2022-12-01T11:24:56.181Z,102522.16
2022-12-01T11:27:27.538Z,102521.59
2022-12-01T11:30:04.938Z,102526.03
2022-12-01T11:32:37.924Z,102532.19
2022-12-01T11:35:16.442Z,102526.03
2022-12-01T11:38:06.267Z,102518.22
2022-12-01T11:40:38.811Z,102521.84
2022-12-01T11:43:06.607Z,102522.69
2022-12-01T11:45:40.341Z,102519.19
2022-12-01T11:48:17.773Z,102525.47
2022-12-01T11:50:45.972Z,102521.03
2022-12-01T11:53:36.645Z,102514.03
2022-12-01T11:56:29.364Z,102514.03
2022-12-01T11:59:09.115Z,102515.72
2022-12-01T12:02:14.320Z,102512.09
2022-12-01T12:04:52.801Z,102509.34
2022-12-01T12:07:34.706Z,102512.56
2022-12-01T12:10:35.574Z,102509.78
2022-12-01T12:13:20.146Z,102517.59
2022-12-01T12:15:59.562Z,102517.44
2022-12-01T12:18:51.694Z,102517.44
2022-12-01T12:21:39.944Z,102517.31
2022-12-01T12:24:47.470Z,102515.53
2022-12-01T12:27:29.065Z,102507.59
2022-12-01T12:30:26.225Z,102504.94
2022-12-01T12:32:55.425Z,102506.66
2022-12-01T12:35:34.875Z,102506.75
2022-12-01T12:38:23.260Z,102508.44
2022-12-01T12:41:23.924Z,102498.91
2022-12-01T12:43:59.476Z,102503.66
2022-12-01T12:46:41.230Z,102508.25
2022-12-01T12:49:37.583Z,102505.59
2022-12-01T12:52:20.258Z,102508.38
2022-12-01T12:54:59.647Z,102507.63
2022-12-01T12:57:38.262Z,102502.34
2022-12-01T13:00:06.996Z,102505.28
2022-12-01T13:02:33.686Z,102507.91
2022-12-01T13:05:20.997Z,102506.81
2022-12-01T13:07:50.684Z,102510.16
2022-12-01T13:10:58.137Z,102496.09
2022-12-01T13:13:32.388Z,102500.56
2022-12-01T13:16:01.201Z,102502.34
2022-12-01T13:18:47.369Z,102499.84
2022-12-01T13:21:17.559Z,102504.16
2022-12-01T13:23:45.891Z,102496.94
2022-12-01T13:26:12.773Z,102502.09
2022-12-01T13:28:46.089Z,102493.19
2022-12-01T13:31:14.523Z,102496.69
2022-12-01T13:34:02.105Z,102487.78
2022-12-01T13:36:46.180Z,102504.38
2022-12-01T13:39:22.790Z,102499.06
2022-12-01T13:42:09.096Z,102501.72
2022-12-01T13:44:41.434Z,102500.75
2022-12-01T13:47:10.981Z,102500.75
2022-12-01T13:49:44.040Z,102490.16
2022-12-01T13:52:22.815Z,102495.59
2022-12-01T13:55:07.953Z,102492.69
2022-12-01T13:57:57.808Z,102497.25
2022-12-01T14:00:32.626Z,102499.31
2022-12-01T14:03:17.611Z,102500.31
2022-12-01T14:05:53.480Z,102494.28
2022-12-01T14:08:31.503Z,102492.63
2022-12-01T14:11:02.347Z,102484.81
2022-12-01T14:13:30.798Z,102479.50
2022-12-01T14:15:59.805Z,102487.44
2022-12-01T14:18:36.354Z,102488.41
2022-12-01T14:21:09.519Z,102491.91
2022-12-01T14:23:58.728Z,102491.91
2022-12-01T14:26:25.863Z,102490.94
2022-12-01T14:28:55.133Z,102494.28
2022-12-01T14:31:34.415Z,102483.69
2022-12-01T14:34:12.111Z,102487.06
2022-12-01T14:36:43.485Z,102481.91
2022-12-01T14:39:17.942Z,102488.75
2022-12-01T14:41:59.971Z,102484.44
2022-12-01T14:44:36.043Z,102478.16
2022-12-01T14:47:13.357Z,102480.81
2022-12-01T14:49:39.854Z,102476.38
2022-12-01T14:52:12.268Z,102481.78
2022-12-01T14:54:47.209Z,102481.06
2022-12-01T14:57:17.911Z,102467.81
2022-12-01T14:59:44.788Z,102480.09
2022-12-01T15:02:12.396Z,102476.75
2022-12-01T15:05:05.592Z,102481.19
2022-12-01T15:07:40.486Z,102470.59
2022-12-01T15:10:16.835Z,102465.19
2022-12-01T15:12:43.440Z,102464.50
2022-12-01T15:15:26.944Z,102460.31
2022-12-01T15:17:55.753Z,102466.53
2022-12-01T15:20:41.275Z,102465.72
2022-12-01T15:23:17.077Z,102464.88
2022-12-01T15:25:45.714Z,102465.59
2022-12-01T15:28:17.676Z,102470.03
2022-12-01T15:30:50.886Z,102469.06
2022-12-01T15:33:27.765Z,102467.13
2022-12-01T15:35:55.945Z,102467.25
2022-12-01T15:38:28.579Z,102466.41
2022-12-01T15:43:42.603Z,102467.25
2022-12-01T15:46:14.818Z,102470.59
2022-12-01T15:48:42.008Z,102467.81
2022-12-01T15:51:27.882Z,102473.97
2022-12-01T15:53:58.998Z,102473.13
2022-12-01T15:56:29.921Z,102469.66
2022-12-01T15:59:09.458Z,102473.13
2022-12-01T16:01:37.099Z,102479.25
2022-12-01T16:04:16.664Z,102472.31
2022-12-01T16:06:52.853Z,102467.81
2022-12-01T16:09:35.325Z,102466.16
2022-12-01T16:12:17.619Z,102472.44
2022-12-01T16:15:06.955Z,102470.75
2022-12-01T16:17:48.203Z,102473.13
2022-12-01T16:20:32.390Z,102470.59
2022-12-01T16:23:04.345Z,102473.53
2022-12-01T16:25:39.631Z,102465.72
2022-12-01T16:28:07.524Z,102471.81
2022-12-01T16:30:37.269Z,102471.69
2022-12-01T16:33:07.049Z,102473.66
2022-12-01T16:35:34.115Z,102481.59
2022-12-01T16:38:04.813Z,102475.56
2022-12-01T16:40:31.858Z,102477.41
2022-12-01T16:42:58.439Z,102478.22
2022-12-01T16:45:26.762Z,102478.22
2022-12-01T16:47:53.403Z,102484.22
2022-12-01T16:50:21.287Z,102480.59
2022-12-01T16:52:48.035Z,102484.22
2022-12-01T16:55:36.473Z,102489.53
2022-12-01T16:58:03.197Z,102492.16
2022-12-01T17:00:29.962Z,102486.75
2022-12-01T17:02:57.617Z,102483.13
2022-12-01T17:05:24.276Z,102483.13
2022-12-01T17:07:51.079Z,102484.94
2022-12-01T17:10:17.935Z,102481.47
2022-12-01T17:12:44.610Z,102478.69
2022-12-01T17:15:11.652Z,102486.47
2022-12-01T17:17:38.236Z,102478.69
2022-12-01T17:20:08.498Z,102471.69
2022-12-01T17:22:35.671Z,102476.03
2022-12-01T17:25:02.844Z,102474.22
2022-12-01T17:27:29.747Z,102475.19
2022-12-01T17:29:58.822Z,102471.69
2022-12-01T17:32:26.227Z,102477.00
2022-12-01T17:34:53.093Z,102476.16
2022-12-01T17:37:21.357Z,102472.44
2022-12-01T17:39:48.212Z,102470.59
2022-12-01T17:42:14.895Z,102465.31
2022-12-01T17:44:41.582Z,102472.44
2022-12-01T17:47:08.251Z,102467.50
2022-12-01T17:49:36.328Z,102464.88
2022-12-01T17:52:04.109Z,102474.47
2022-12-01T17:54:30.858Z,102477.13
2022-12-01T17:56:57.444Z,102471.13
2022-12-01T17:59:24.093Z,102467.50
2022-12-01T18:01:50.776Z,102468.47
2022-12-01T18:04:17.401Z,102469.19
2022-12-01T18:06:46.014Z,102462.09
2022-12-01T18:09:15.909Z,102464.63
2022-12-01T18:11:42.479Z,102462.94
2022-12-01T18:14:09.287Z,102466.41
2022-12-01T18:16:35.962Z,102470.75
2022-12-01T18:19:03.193Z,102468.13
2022-12-01T18:21:30.084Z,102462.81
2022-12-01T18:24:02.785Z,102470.59
2022-12-01T18:26:31.631Z,102460.19
2022-12-01T18:29:00.852Z,102462.81
2022-12-01T18:31:28.207Z,102457.66
2022-12-01T18:33:58.427Z,102461.13
2022-12-01T18:36:25.875Z,102455.13
2022-12-01T18:38:54.460Z,102452.50
2022-12-01T18:41:21.139Z,102449.84
2022-12-01T18:43:47.745Z,102448.16
2022-12-01T18:46:15.357Z,102455.13
2022-12-01T18:48:49.692Z,102455.25
2022-12-01T18:51:16.483Z,102454.56
2022-12-01T18:53:45.393Z,102457.22
2022-12-01T18:56:12.833Z,102449.41
2022-12-01T18:58:40.613Z,102449.41
2022-12-01T19:01:22.368Z,102454.69
2022-12-01T19:03:48.969Z,102453.72
2022-12-01T19:06:15.639Z,102456.34
2022-12-01T19:08:42.232Z,102456.22
2022-12-01T19:11:09.199Z,102458.03
2022-12-01T19:13:35.984Z,102458.88
2022-12-01T19:16:11.874Z,102460.53
2022-12-01T19:18:39.040Z,102453.47
2022-12-01T19:21:07.535Z,102451.50
2022-12-01T19:23:34.406Z,102455.81
2022-12-01T19:26:08.214Z,102448.75
2022-12-01T19:28:35.707Z,102451.38
2022-12-01T19:31:07.109Z,102452.25
2022-12-01T19:33:33.742Z,102448.63
2022-12-01T19:36:08.723Z,102447.63
2022-12-01T19:38:35.356Z,102446.78
2022-12-01T19:41:02.568Z,102439.81
2022-12-01T19:43:29.233Z,102445.97
2022-12-01T19:45:55.903Z,102441.66
2022-12-01T19:48:22.522Z,102444.31
2022-12-01T19:50:49.150Z,102441.66
2022-12-01T19:53:15.702Z,102438.28
2022-12-01T19:55:42.267Z,102447.19
2022-12-01T19:58:08.827Z,102441.78
2022-12-01T20:00:35.505Z,102449.72
2022-12-01T20:03:02.136Z,102452.50
2022-12-01T20:05:28.730Z,102447.44
2022-12-01T20:07:55.400Z,102444.94
2022-12-01T20:10:22.072Z,102450.22
2022-12-01T20:12:49.062Z,102447.69
2022-12-01T20:15:16.217Z,102450.34
2022-12-01T20:17:43.214Z,102445.91
2022-12-01T20:20:10.708Z,102449.28
2022-12-01T20:22:37.789Z,102445.78
2022-12-01T20:25:05.323Z,102445.78
2022-12-01T20:27:32.162Z,102447.31
2022-12-01T20:29:58.866Z,102453.47
2022-12-01T20:32:25.460Z,102452.50
2022-12-01T20:34:52.238Z,102449.72
2022-12-01T20:37:19.198Z,102451.50
2022-12-01T20:39:45.835Z,102449.84
2022-12-01T20:42:12.430Z,102454.03
2022-12-01T20:44:40.048Z,102447.88
2022-12-01T20:47:06.847Z,102450.53
2022-12-01T20:49:33.478Z,102459.19
2022-12-01T20:52:00.098Z,102453.31
2022-12-01T20:54:28.289Z,102451.50
2022-12-01T20:56:56.017Z,102449.72
2022-12-01T20:59:22.742Z,102446.22
2022-12-01T21:01:49.425Z,102453.31
2022-12-01T21:04:16.069Z,102448.88
2022-12-01T21:06:42.719Z,102442.72
2022-12-01T21:09:09.555Z,102441.06
2022-12-01T21:12:13.359Z,102442.72
2022-12-01T21:14:47.956Z,102446.34
2022-12-01T21:17:33.821Z,102453.59
2022-12-01T21:20:12.991Z,102456.34
2022-12-01T21:22:39.642Z,102456.34
2022-12-01T21:25:18.940Z,102453.97
2022-12-01T21:27:46.977Z,102458.03
2022-12-01T21:30:26.114Z,102449.41
2022-12-01T21:32:53.287Z,102450.22
2022-12-01T21:35:24.958Z,102442.28
2022-12-01T21:37:57.762Z,102441.47
2022-12-01T21:40:25.860Z,102443.81
2022-12-01T21:42:52.834Z,102449.00
2022-12-01T21:45:31.886Z,102447.19
2022-12-01T21:48:01.609Z,102448.00
2022-12-01T21:50:28.261Z,102445.25
2022-12-01T21:52:54.874Z,102438.16
2022-12-01T21:55:21.396Z,102445.25
2022-12-01T21:57:55.191Z,102441.66
2022-12-01T22:00:29.296Z,102441.66
2022-12-01T22:03:25.387Z,102441.66
2022-12-01T22:06:27.654Z,102439.13
2022-12-01T22:08:45.731Z,102446.22
2022-12-01T22:11:23.136Z,102439.94
2022-12-01T22:13:49.641Z,102437.31
2022-12-01T22:16:20.507Z,102436.63
2022-12-01T22:18:52.616Z,102432.16
2022-12-01T22:21:22.151Z,102434.78
2022-12-01T22:24:01.514Z,102427.00
2022-12-01T22:26:28.104Z,102428.13
2022-12-01T22:28:56.984Z,102425.59
2022-12-01T22:31:23.998Z,102427.25
2022-12-01T22:34:03.363Z,102416.81
2022-12-01T22:36:31.926Z,102419.56
2022-12-01T22:38:58.902Z,102414.16
2022-12-01T22:41:26.969Z,102417.66
2022-12-01T22:43:57.591Z,102416.69
2022-12-01T22:46:25.579Z,102414.03
2022-12-01T22:49:11.292Z,102413.19
2022-12-01T22:51:42.747Z,102410.41
2022-12-01T22:54:12.291Z,102409.59
2022-12-01T22:56:45.946Z,102417.25
2022-12-01T22:59:36.114Z,102404.03
2022-12-01T23:02:20.414Z,102405.84
2022-12-01T23:04:47.694Z,102410.97
2022-12-01T23:07:34.496Z,102410.16
2022-12-01T23:10:06.928Z,102406.53
2022-12-01T23:12:34.977Z,102402.09
2022-12-01T23:15:20.844Z,102403.78
2022-12-01T23:17:48.043Z,102409.06
2022-12-01T23:20:14.511Z,102397.63
2022-12-01T23:22:41.123Z,102397.63
2022-12-01T23:25:14.117Z,102400.28
2022-12-01T23:27:41.040Z,102384.41
2022-12-01T23:30:08.195Z,102380.94
2022-12-01T23:32:34.875Z,102379.09
2022-12-01T23:35:02.042Z,102386.91
2022-12-01T23:37:37.712Z,102383.59
2022-12-01T23:40:23.624Z,102382.03
2022-12-01T23:42:50.882Z,102385.63
2022-12-01T23:45:21.381Z,102382.16
2022-12-01T23:47:48.093Z,102381.44
2022-12-01T23:50:25.840Z,102377.97
2022-12-01T23:52:52.849Z,102376.03
2022-12-01T23:55:37.339Z,102376.88
2022-12-01T23:58:03.901Z,102376.16
